Terminal Aerodrome Forecast
Issued by NWS

Current Version | Previous Version | Text Only | Print | Product List | Glossary Off
Versions: 1 2 3 4 5 6 7 8 9 10 11 12 13 14 15 16 17 18 19 20 21 22 23

000
FTUS41 KPBZ 191700
TAFHLG
TAF
KHLG 191730Z 1918/2018 10005KT P6SM FEW040
     FM201500 20009G16KT P6SM SCT050=

USA.gov is the U.S. government's official web portal to all federal, state and local government web resources and services.